sensor_id;sensor_type;location;lat;lon;timestamp;P1;durP1;ratioP1;P2;durP2;ratioP2
65279;SDS011;51878;55.748;48.742;2024-03-06T00:00:52;2.10;;;1.67;;
65279;SDS011;51878;55.748;48.742;2024-03-06T00:05:54;1.90;;;1.40;;
65279;SDS011;51878;55.748;48.742;2024-03-06T00:10:56;1.60;;;1.50;;
65279;SDS011;51878;55.748;48.742;2024-03-06T00:15:58;1.83;;;1.45;;
65279;SDS011;51878;55.748;48.742;2024-03-06T00:21:01;3.90;;;1.75;;
65279;SDS011;51878;55.748;48.742;2024-03-06T00:26:03;1.73;;;1.52;;
65279;SDS011;51878;55.748;48.742;2024-03-06T00:31:05;1.85;;;1.50;;
65279;SDS011;51878;55.748;48.742;2024-03-06T00:36:08;2.70;;;1.85;;
65279;SDS011;51878;55.748;48.742;2024-03-06T00:41:10;2.28;;;1.55;;
65279;SDS011;51878;55.748;48.742;2024-03-06T00:46:12;1.55;;;1.45;;
65279;SDS011;51878;55.748;48.742;2024-03-06T00:51:15;1.38;;;1.27;;
65279;SDS011;51878;55.748;48.742;2024-03-06T00:56:17;1.52;;;1.35;;
65279;SDS011;51878;55.748;48.742;2024-03-06T01:01:19;3.85;;;1.80;;
65279;SDS011;51878;55.748;48.742;2024-03-06T01:06:21;2.80;;;1.80;;
65279;SDS011;51878;55.748;48.742;2024-03-06T01:11:24;2.30;;;1.70;;
65279;SDS011;51878;55.748;48.742;2024-03-06T01:16:28;2.05;;;1.45;;
65279;SDS011;51878;55.748;48.742;2024-03-06T01:21:31;1.58;;;1.45;;
65279;SDS011;51878;55.748;48.742;2024-03-06T01:26:36;1.40;;;1.30;;
65279;SDS011;51878;55.748;48.742;2024-03-06T01:31:38;2.58;;;1.63;;
65279;SDS011;51878;55.748;48.742;2024-03-06T01:36:40;2.17;;;1.45;;
65279;SDS011;51878;55.748;48.742;2024-03-06T01:41:45;2.17;;;1.65;;
65279;SDS011;51878;55.748;48.742;2024-03-06T01:46:52;2.40;;;1.50;;
65279;SDS011;51878;55.748;48.742;2024-03-06T01:51:55;1.60;;;1.48;;
65279;SDS011;51878;55.748;48.742;2024-03-06T01:56:59;2.95;;;1.70;;
65279;SDS011;51878;55.748;48.742;2024-03-06T02:02:04;1.75;;;1.58;;
65279;SDS011;51878;55.748;48.742;2024-03-06T02:07:09;1.58;;;1.48;;
65279;SDS011;51878;55.748;48.742;2024-03-06T02:12:15;3.45;;;1.67;;
65279;SDS011;51878;55.748;48.742;2024-03-06T02:17:18;3.70;;;2.10;;
65279;SDS011;51878;55.748;48.742;2024-03-06T02:22:20;3.08;;;1.63;;
65279;SDS011;51878;55.748;48.742;2024-03-06T02:27:22;1.85;;;1.70;;
65279;SDS011;51878;55.748;48.742;2024-03-06T02:32:24;2.55;;;1.88;;
65279;SDS011;51878;55.748;48.742;2024-03-06T02:37:27;1.58;;;1.48;;
65279;SDS011;51878;55.748;48.742;2024-03-06T02:42:29;1.88;;;1.55;;
65279;SDS011;51878;55.748;48.742;2024-03-06T02:47:31;2.65;;;1.80;;
65279;SDS011;51878;55.748;48.742;2024-03-06T02:52:34;3.58;;;1.80;;
65279;SDS011;51878;55.748;48.742;2024-03-06T02:57:36;1.50;;;1.40;;
65279;SDS011;51878;55.748;48.742;2024-03-06T03:02:39;2.08;;;1.88;;
65279;SDS011;51878;55.748;48.742;2024-03-06T03:07:41;3.30;;;2.33;;
65279;SDS011;51878;55.748;48.742;2024-03-06T03:12:47;1.50;;;1.27;;
65279;SDS011;51878;55.748;48.742;2024-03-06T03:17:49;1.90;;;1.48;;
65279;SDS011;51878;55.748;48.742;2024-03-06T03:22:51;2.10;;;1.58;;
65279;SDS011;51878;55.748;48.742;2024-03-06T03:27:54;4.75;;;2.00;;
65279;SDS011;51878;55.748;48.742;2024-03-06T03:32:56;2.75;;;2.03;;
65279;SDS011;51878;55.748;48.742;2024-03-06T03:37:58;1.67;;;1.38;;
65279;SDS011;51878;55.748;48.742;2024-03-06T03:43:01;2.72;;;1.60;;
65279;SDS011;51878;55.748;48.742;2024-03-06T03:48:08;1.85;;;1.75;;
65279;SDS011;51878;55.748;48.742;2024-03-06T03:53:10;3.75;;;1.98;;
65279;SDS011;51878;55.748;48.742;2024-03-06T03:58:12;3.88;;;1.58;;
65279;SDS011;51878;55.748;48.742;2024-03-06T04:03:15;2.72;;;1.63;;
65279;SDS011;51878;55.748;48.742;2024-03-06T04:08:17;2.28;;;1.70;;
65279;SDS011;51878;55.748;48.742;2024-03-06T04:13:19;2.22;;;1.60;;
65279;SDS011;51878;55.748;48.742;2024-03-06T04:18:22;1.42;;;1.33;;
65279;SDS011;51878;55.748;48.742;2024-03-06T04:23:47;1.42;;;1.30;;
65279;SDS011;51878;55.748;48.742;2024-03-06T04:28:48;4.22;;;2.20;;
65279;SDS011;51878;55.748;48.742;2024-03-06T04:33:51;2.13;;;1.50;;
65279;SDS011;51878;55.748;48.742;2024-03-06T04:38:53;2.97;;;1.63;;
65279;SDS011;51878;55.748;48.742;2024-03-06T04:43:55;1.80;;;1.65;;
65279;SDS011;51878;55.748;48.742;2024-03-06T04:49:00;2.10;;;1.58;;
65279;SDS011;51878;55.748;48.742;2024-03-06T04:54:02;1.92;;;1.27;;
65279;SDS011;51878;55.748;48.742;2024-03-06T04:59:05;2.95;;;1.70;;
65279;SDS011;51878;55.748;48.742;2024-03-06T05:04:07;1.63;;;1.52;;
65279;SDS011;51878;55.748;48.742;2024-03-06T05:09:26;2.33;;;1.58;;
65279;SDS011;51878;55.748;48.742;2024-03-06T05:14:45;6.55;;;1.80;;
65279;SDS011;51878;55.748;48.742;2024-03-06T05:20:05;4.32;;;1.85;;
65279;SDS011;51878;55.748;48.742;2024-03-06T05:25:25;1.40;;;1.27;;
65279;SDS011;51878;55.748;48.742;2024-03-06T05:30:45;1.85;;;1.65;;
65279;SDS011;51878;55.748;48.742;2024-03-06T05:36:04;2.08;;;1.30;;
65279;SDS011;51878;55.748;48.742;2024-03-06T05:41:24;2.73;;;1.70;;
65279;SDS011;51878;55.748;48.742;2024-03-06T05:46:44;1.50;;;1.40;;
65279;SDS011;51878;55.748;48.742;2024-03-06T05:52:04;5.38;;;1.63;;
65279;SDS011;51878;55.748;48.742;2024-03-06T05:57:23;2.03;;;1.40;;
65279;SDS011;51878;55.748;48.742;2024-03-06T06:02:43;4.22;;;1.73;;
65279;SDS011;51878;55.748;48.742;2024-03-06T06:07:47;2.53;;;1.80;;
65279;SDS011;51878;55.748;48.742;2024-03-06T06:12:49;4.82;;;2.00;;
65279;SDS011;51878;55.748;48.742;2024-03-06T06:17:52;2.05;;;1.42;;
65279;SDS011;51878;55.748;48.742;2024-03-06T06:22:54;1.67;;;1.40;;
65279;SDS011;51878;55.748;48.742;2024-03-06T06:27:56;1.42;;;1.33;;
65279;SDS011;51878;55.748;48.742;2024-03-06T06:32:58;2.20;;;1.30;;
65279;SDS011;51878;55.748;48.742;2024-03-06T06:38:01;7.75;;;2.10;;
65279;SDS011;51878;55.748;48.742;2024-03-06T06:43:04;3.40;;;1.70;;
65279;SDS011;51878;55.748;48.742;2024-03-06T06:48:06;2.35;;;1.70;;
65279;SDS011;51878;55.748;48.742;2024-03-06T06:53:10;5.72;;;2.20;;
65279;SDS011;51878;55.748;48.742;2024-03-06T06:58:14;2.75;;;1.17;;
65279;SDS011;51878;55.748;48.742;2024-03-06T07:03:16;2.38;;;1.52;;
65279;SDS011;51878;55.748;48.742;2024-03-06T07:08:18;2.35;;;1.33;;
65279;SDS011;51878;55.748;48.742;2024-03-06T07:13:20;1.80;;;1.50;;
65279;SDS011;51878;55.748;48.742;2024-03-06T07:18:22;5.18;;;1.55;;
65279;SDS011;51878;55.748;48.742;2024-03-06T07:23:25;1.33;;;1.20;;
65279;SDS011;51878;55.748;48.742;2024-03-06T07:28:27;2.03;;;1.38;;
65279;SDS011;51878;55.748;48.742;2024-03-06T07:33:30;2.72;;;1.42;;
65279;SDS011;51878;55.748;48.742;2024-03-06T07:38:33;1.50;;;1.23;;
65279;SDS011;51878;55.748;48.742;2024-03-06T07:43:35;1.30;;;1.20;;
65279;SDS011;51878;55.748;48.742;2024-03-06T07:48:37;5.28;;;1.65;;
65279;SDS011;51878;55.748;48.742;2024-03-06T07:53:40;2.15;;;1.35;;
65279;SDS011;51878;55.748;48.742;2024-03-06T07:58:42;1.50;;;1.40;;
65279;SDS011;51878;55.748;48.742;2024-03-06T08:03:45;1.60;;;1.20;;
65279;SDS011;51878;55.748;48.742;2024-03-06T08:08:47;1.52;;;1.10;;
65279;SDS011;51878;55.748;48.742;2024-03-06T08:13:49;3.20;;;1.55;;
65279;SDS011;51878;55.748;48.742;2024-03-06T08:18:52;2.92;;;1.38;;
65279;SDS011;51878;55.748;48.742;2024-03-06T08:23:54;2.13;;;1.38;;
65279;SDS011;51878;55.748;48.742;2024-03-06T08:28:56;1.40;;;1.30;;
65279;SDS011;51878;55.748;48.742;2024-03-06T08:33:58;3.63;;;1.35;;
65279;SDS011;51878;55.748;48.742;2024-03-06T08:39:00;1.33;;;1.13;;
65279;SDS011;51878;55.748;48.742;2024-03-06T08:44:03;2.13;;;1.20;;
65279;SDS011;51878;55.748;48.742;2024-03-06T08:49:05;1.95;;;1.10;;
65279;SDS011;51878;55.748;48.742;2024-03-06T08:54:09;1.88;;;1.23;;
65279;SDS011;51878;55.748;48.742;2024-03-06T08:59:15;2.35;;;1.30;;
65279;SDS011;51878;55.748;48.742;2024-03-06T09:04:17;1.60;;;1.30;;
65279;SDS011;51878;55.748;48.742;2024-03-06T09:09:19;1.20;;;1.10;;
65279;SDS011;51878;55.748;48.742;2024-03-06T09:14:21;2.83;;;1.67;;
65279;SDS011;51878;55.748;48.742;2024-03-06T09:19:24;1.42;;;1.30;;
65279;SDS011;51878;55.748;48.742;2024-03-06T09:24:27;1.88;;;1.30;;
65279;SDS011;51878;55.748;48.742;2024-03-06T09:29:29;3.45;;;1.20;;
65279;SDS011;51878;55.748;48.742;2024-03-06T09:34:32;2.28;;;1.40;;
65279;SDS011;51878;55.748;48.742;2024-03-06T09:39:34;3.40;;;1.42;;
65279;SDS011;51878;55.748;48.742;2024-03-06T09:44:37;1.98;;;1.52;;
65279;SDS011;51878;55.748;48.742;2024-03-06T09:49:39;2.25;;;1.30;;
65279;SDS011;51878;55.748;48.742;2024-03-06T09:54:42;3.72;;;1.58;;
65279;SDS011;51878;55.748;48.742;2024-03-06T09:59:45;3.72;;;1.60;;
65279;SDS011;51878;55.748;48.742;2024-03-06T10:04:47;1.98;;;1.50;;
65279;SDS011;51878;55.748;48.742;2024-03-06T10:09:49;3.33;;;1.70;;
65279;SDS011;51878;55.748;48.742;2024-03-06T10:14:52;1.52;;;1.40;;
65279;SDS011;51878;55.748;48.742;2024-03-06T10:19:54;2.10;;;1.63;;
65279;SDS011;51878;55.748;48.742;2024-03-06T10:24:59;4.38;;;1.55;;
65279;SDS011;51878;55.748;48.742;2024-03-06T10:30:02;2.28;;;1.65;;
65279;SDS011;51878;55.748;48.742;2024-03-06T10:35:06;2.33;;;1.85;;
65279;SDS011;51878;55.748;48.742;2024-03-06T10:40:09;4.07;;;1.52;;
65279;SDS011;51878;55.748;48.742;2024-03-06T10:45:16;2.58;;;1.40;;
65279;SDS011;51878;55.748;48.742;2024-03-06T10:50:20;2.60;;;1.67;;
65279;SDS011;51878;55.748;48.742;2024-03-06T10:55:23;2.25;;;1.60;;
65279;SDS011;51878;55.748;48.742;2024-03-06T11:00:27;3.10;;;1.50;;
65279;SDS011;51878;55.748;48.742;2024-03-06T11:05:31;2.00;;;1.60;;
65279;SDS011;51878;55.748;48.742;2024-03-06T11:10:33;4.32;;;1.75;;
65279;SDS011;51878;55.748;48.742;2024-03-06T11:15:37;2.17;;;1.50;;
65279;SDS011;51878;55.748;48.742;2024-03-06T11:20:39;2.92;;;1.90;;
65279;SDS011;51878;55.748;48.742;2024-03-06T11:31:09;2.88;;;1.77;;
65279;SDS011;51878;55.748;48.742;2024-03-06T11:41:27;3.63;;;2.38;;
65279;SDS011;51878;55.748;48.742;2024-03-06T11:47:17;4.22;;;2.42;;
65279;SDS011;51878;55.748;48.742;2024-03-06T11:52:06;3.85;;;2.50;;
65279;SDS011;51878;55.748;48.742;2024-03-06T11:57:12;6.00;;;3.10;;
65279;SDS011;51878;55.748;48.742;2024-03-06T12:02:17;3.85;;;2.65;;
65279;SDS011;51878;55.748;48.742;2024-03-06T12:07:20;4.25;;;3.08;;
65279;SDS011;51878;55.748;48.742;2024-03-06T12:12:23;5.80;;;3.38;;
65279;SDS011;51878;55.748;48.742;2024-03-06T12:17:26;6.75;;;3.40;;
65279;SDS011;51878;55.748;48.742;2024-03-06T12:22:28;5.35;;;2.63;;
65279;SDS011;51878;55.748;48.742;2024-03-06T12:27:30;6.70;;;3.10;;
65279;SDS011;51878;55.748;48.742;2024-03-06T12:32:37;8.05;;;3.05;;
65279;SDS011;51878;55.748;48.742;2024-03-06T12:37:40;6.15;;;2.70;;
65279;SDS011;51878;55.748;48.742;2024-03-06T12:42:42;4.88;;;2.47;;
65279;SDS011;51878;55.748;48.742;2024-03-06T12:47:49;3.63;;;2.15;;
65279;SDS011;51878;55.748;48.742;2024-03-06T12:52:51;4.10;;;2.42;;
65279;SDS011;51878;55.748;48.742;2024-03-06T12:57:54;3.97;;;2.50;;
65279;SDS011;51878;55.748;48.742;2024-03-06T13:02:56;5.25;;;2.72;;
65279;SDS011;51878;55.748;48.742;2024-03-06T13:07:58;4.13;;;2.58;;
65279;SDS011;51878;55.748;48.742;2024-03-06T13:13:01;5.05;;;2.30;;
65279;SDS011;51878;55.748;48.742;2024-03-06T13:18:04;3.08;;;2.13;;
65279;SDS011;51878;55.748;48.742;2024-03-06T13:23:06;3.33;;;2.28;;
65279;SDS011;51878;55.748;48.742;2024-03-06T13:28:11;3.38;;;2.05;;
65279;SDS011;51878;55.748;48.742;2024-03-06T13:33:16;4.05;;;2.40;;
65279;SDS011;51878;55.748;48.742;2024-03-06T13:38:19;3.60;;;2.22;;
65279;SDS011;51878;55.748;48.742;2024-03-06T13:43:21;3.05;;;2.30;;
65279;SDS011;51878;55.748;48.742;2024-03-06T13:48:27;3.72;;;1.90;;
65279;SDS011;51878;55.748;48.742;2024-03-06T13:53:30;6.28;;;2.63;;
65279;SDS011;51878;55.748;48.742;2024-03-06T13:58:32;2.53;;;1.85;;
65279;SDS011;51878;55.748;48.742;2024-03-06T14:03:35;3.90;;;2.50;;
65279;SDS011;51878;55.748;48.742;2024-03-06T14:08:40;3.60;;;1.92;;
65279;SDS011;51878;55.748;48.742;2024-03-06T14:13:45;3.08;;;1.83;;
65279;SDS011;51878;55.748;48.742;2024-03-06T14:18:48;4.53;;;1.92;;
65279;SDS011;51878;55.748;48.742;2024-03-06T14:23:50;3.40;;;2.08;;
65279;SDS011;51878;55.748;48.742;2024-03-06T14:28:52;4.32;;;2.28;;
65279;SDS011;51878;55.748;48.742;2024-03-06T14:33:54;6.60;;;3.22;;
65279;SDS011;51878;55.748;48.742;2024-03-06T14:38:57;3.33;;;1.95;;
65279;SDS011;51878;55.748;48.742;2024-03-06T14:44:00;2.80;;;1.33;;
65279;SDS011;51878;55.748;48.742;2024-03-06T14:49:02;4.22;;;1.48;;
65279;SDS011;51878;55.748;48.742;2024-03-06T14:54:04;3.42;;;2.75;;
65279;SDS011;51878;55.748;48.742;2024-03-06T14:59:07;2.25;;;1.17;;
65279;SDS011;51878;55.748;48.742;2024-03-06T15:04:10;2.03;;;1.50;;
65279;SDS011;51878;55.748;48.742;2024-03-06T15:09:15;1.50;;;1.40;;
65279;SDS011;51878;55.748;48.742;2024-03-06T15:14:23;2.08;;;1.55;;
65279;SDS011;51878;55.748;48.742;2024-03-06T15:19:26;3.10;;;1.73;;
65279;SDS011;51878;55.748;48.742;2024-03-06T15:24:29;1.70;;;1.17;;
65279;SDS011;51878;55.748;48.742;2024-03-06T15:29:32;1.40;;;1.17;;
65279;SDS011;51878;55.748;48.742;2024-03-06T15:34:34;2.20;;;1.60;;
65279;SDS011;51878;55.748;48.742;2024-03-06T15:39:37;1.63;;;1.52;;
65279;SDS011;51878;55.748;48.742;2024-03-06T15:44:39;1.50;;;1.40;;
65279;SDS011;51878;55.748;48.742;2024-03-06T15:49:43;1.23;;;1.02;;
65279;SDS011;51878;55.748;48.742;2024-03-06T15:54:46;2.13;;;1.92;;
65279;SDS011;51878;55.748;48.742;2024-03-06T15:59:48;2.20;;;1.98;;
65279;SDS011;51878;55.748;48.742;2024-03-06T16:04:50;1.67;;;1.55;;
65279;SDS011;51878;55.748;48.742;2024-03-06T16:09:53;11.07;;;1.65;;
65279;SDS011;51878;55.748;48.742;2024-03-06T16:14:55;2.92;;;1.85;;
65279;SDS011;51878;55.748;48.742;2024-03-06T16:19:57;2.83;;;1.80;;
65279;SDS011;51878;55.748;48.742;2024-03-06T16:24:59;1.60;;;1.50;;
65279;SDS011;51878;55.748;48.742;2024-03-06T16:30:03;1.85;;;1.65;;
65279;SDS011;51878;55.748;48.742;2024-03-06T16:35:08;2.03;;;1.08;;
65279;SDS011;51878;55.748;48.742;2024-03-06T16:40:10;1.33;;;1.23;;
65279;SDS011;51878;55.748;48.742;2024-03-06T16:45:13;2.03;;;1.50;;
65279;SDS011;51878;55.748;48.742;2024-03-06T16:50:16;2.20;;;1.65;;
65279;SDS011;51878;55.748;48.742;2024-03-06T16:55:18;4.35;;;2.30;;
65279;SDS011;51878;55.748;48.742;2024-03-06T17:00:20;1.13;;;1.10;;
65279;SDS011;51878;55.748;48.742;2024-03-06T17:05:24;2.00;;;1.80;;
65279;SDS011;51878;55.748;48.742;2024-03-06T17:10:26;3.38;;;1.95;;
65279;SDS011;51878;55.748;48.742;2024-03-06T17:15:31;5.95;;;2.58;;
65279;SDS011;51878;55.748;48.742;2024-03-06T17:20:34;2.88;;;1.98;;
65279;SDS011;51878;55.748;48.742;2024-03-06T17:25:37;3.70;;;2.10;;
65279;SDS011;51878;55.748;48.742;2024-03-06T17:30:42;6.07;;;1.55;;
65279;SDS011;51878;55.748;48.742;2024-03-06T17:35:50;2.60;;;1.90;;
65279;SDS011;51878;55.748;48.742;2024-03-06T17:40:53;4.25;;;1.83;;
65279;SDS011;51878;55.748;48.742;2024-03-06T17:45:55;2.88;;;1.98;;
65279;SDS011;51878;55.748;48.742;2024-03-06T17:50:59;3.90;;;2.03;;
65279;SDS011;51878;55.748;48.742;2024-03-06T17:56:02;1.80;;;1.70;;
65279;SDS011;51878;55.748;48.742;2024-03-06T18:01:04;3.22;;;1.77;;
65279;SDS011;51878;55.748;48.742;2024-03-06T18:06:07;1.40;;;1.30;;
65279;SDS011;51878;55.748;48.742;2024-03-06T18:11:09;2.30;;;1.98;;
65279;SDS011;51878;55.748;48.742;2024-03-06T18:16:12;4.80;;;3.00;;
65279;SDS011;51878;55.748;48.742;2024-03-06T18:21:15;2.95;;;2.47;;
65279;SDS011;51878;55.748;48.742;2024-03-06T18:26:20;10.00;;;1.85;;
65279;SDS011;51878;55.748;48.742;2024-03-06T18:31:23;18.45;;;3.03;;
65279;SDS011;51878;55.748;48.742;2024-03-06T18:36:25;4.82;;;2.63;;
65279;SDS011;51878;55.748;48.742;2024-03-06T18:41:28;5.20;;;2.90;;
65279;SDS011;51878;55.748;48.742;2024-03-06T18:46:30;3.00;;;2.03;;
65279;SDS011;51878;55.748;48.742;2024-03-06T18:51:34;3.72;;;2.53;;
65279;SDS011;51878;55.748;48.742;2024-03-06T18:56:36;3.38;;;2.33;;
65279;SDS011;51878;55.748;48.742;2024-03-06T19:01:40;3.58;;;2.55;;
65279;SDS011;51878;55.748;48.742;2024-03-06T19:06:59;3.97;;;1.73;;
65279;SDS011;51878;55.748;48.742;2024-03-06T19:12:07;4.30;;;2.30;;
65279;SDS011;51878;55.748;48.742;2024-03-06T19:17:10;4.55;;;2.28;;
65279;SDS011;51878;55.748;48.742;2024-03-06T19:22:12;4.15;;;2.72;;
65279;SDS011;51878;55.748;48.742;2024-03-06T19:27:16;5.75;;;2.67;;
65279;SDS011;51878;55.748;48.742;2024-03-06T19:32:18;2.97;;;1.90;;
65279;SDS011;51878;55.748;48.742;2024-03-06T19:37:20;4.45;;;2.78;;
65279;SDS011;51878;55.748;48.742;2024-03-06T19:42:23;2.50;;;1.65;;
65279;SDS011;51878;55.748;48.742;2024-03-06T19:47:26;7.05;;;3.28;;
65279;SDS011;51878;55.748;48.742;2024-03-06T19:52:28;4.88;;;3.33;;
65279;SDS011;51878;55.748;48.742;2024-03-06T19:57:30;4.35;;;2.47;;
65279;SDS011;51878;55.748;48.742;2024-03-06T20:02:32;7.93;;;2.88;;
65279;SDS011;51878;55.748;48.742;2024-03-06T20:07:35;2.92;;;2.10;;
65279;SDS011;51878;55.748;48.742;2024-03-06T20:12:37;6.93;;;2.90;;
65279;SDS011;51878;55.748;48.742;2024-03-06T20:17:39;3.53;;;1.80;;
65279;SDS011;51878;55.748;48.742;2024-03-06T20:22:41;2.10;;;1.77;;
65279;SDS011;51878;55.748;48.742;2024-03-06T20:27:44;5.03;;;2.03;;
65279;SDS011;51878;55.748;48.742;2024-03-06T20:32:46;4.78;;;2.80;;
65279;SDS011;51878;55.748;48.742;2024-03-06T20:37:48;3.70;;;2.10;;
65279;SDS011;51878;55.748;48.742;2024-03-06T20:42:51;7.28;;;2.25;;
65279;SDS011;51878;55.748;48.742;2024-03-06T20:47:53;2.75;;;1.85;;
65279;SDS011;51878;55.748;48.742;2024-03-06T20:53:02;2.47;;;1.80;;
65279;SDS011;51878;55.748;48.742;2024-03-06T20:58:04;2.78;;;1.83;;
65279;SDS011;51878;55.748;48.742;2024-03-06T21:03:07;0.90;;;0.90;;
65279;SDS011;51878;55.748;48.742;2024-03-06T21:08:10;2.67;;;1.83;;
65279;SDS011;51878;55.748;48.742;2024-03-06T21:13:12;1.42;;;1.23;;
65279;SDS011;51878;55.748;48.742;2024-03-06T21:18:14;1.30;;;1.20;;
65279;SDS011;51878;55.748;48.742;2024-03-06T21:23:17;1.63;;;1.35;;
65279;SDS011;51878;55.748;48.742;2024-03-06T21:28:19;4.88;;;2.53;;
65279;SDS011;51878;55.748;48.742;2024-03-06T21:33:24;9.57;;;1.88;;
65279;SDS011;51878;55.748;48.742;2024-03-06T21:38:26;2.50;;;1.80;;
65279;SDS011;51878;55.748;48.742;2024-03-06T21:43:28;2.38;;;1.60;;
65279;SDS011;51878;55.748;48.742;2024-03-06T21:48:34;1.13;;;1.05;;
65279;SDS011;51878;55.748;48.742;2024-03-06T21:53:37;2.67;;;1.50;;
65279;SDS011;51878;55.748;48.742;2024-03-06T21:58:42;3.47;;;1.52;;
65279;SDS011;51878;55.748;48.742;2024-03-06T22:03:45;3.70;;;1.88;;
65279;SDS011;51878;55.748;48.742;2024-03-06T22:08:47;1.05;;;0.80;;
65279;SDS011;51878;55.748;48.742;2024-03-06T22:13:50;2.17;;;1.92;;
65279;SDS011;51878;55.748;48.742;2024-03-06T22:18:52;1.95;;;1.65;;
65279;SDS011;51878;55.748;48.742;2024-03-06T22:23:54;3.30;;;2.00;;
65279;SDS011;51878;55.748;48.742;2024-03-06T22:28:57;10.48;;;2.13;;
65279;SDS011;51878;55.748;48.742;2024-03-06T22:33:59;5.40;;;2.30;;
65279;SDS011;51878;55.748;48.742;2024-03-06T22:39:06;2.08;;;1.23;;
65279;SDS011;51878;55.748;48.742;2024-03-06T22:44:08;4.93;;;1.50;;
65279;SDS011;51878;55.748;48.742;2024-03-06T22:49:10;2.28;;;1.85;;
65279;SDS011;51878;55.748;48.742;2024-03-06T22:54:12;1.55;;;1.45;;
65279;SDS011;51878;55.748;48.742;2024-03-06T22:59:16;2.08;;;1.35;;
65279;SDS011;51878;55.748;48.742;2024-03-06T23:04:18;2.15;;;1.92;;
65279;SDS011;51878;55.748;48.742;2024-03-06T23:09:21;2.38;;;1.45;;
65279;SDS011;51878;55.748;48.742;2024-03-06T23:14:23;1.17;;;0.98;;
65279;SDS011;51878;55.748;48.742;2024-03-06T23:19:25;1.13;;;1.02;;
65279;SDS011;51878;55.748;48.742;2024-03-06T23:24:27;2.33;;;1.20;;
65279;SDS011;51878;55.748;48.742;2024-03-06T23:29:30;1.58;;;1.40;;
65279;SDS011;51878;55.748;48.742;2024-03-06T23:34:32;3.60;;;2.10;;
65279;SDS011;51878;55.748;48.742;2024-03-06T23:39:34;3.28;;;1.55;;
65279;SDS011;51878;55.748;48.742;2024-03-06T23:44:36;1.33;;;1.23;;
65279;SDS011;51878;55.748;48.742;2024-03-06T23:49:39;2.03;;;1.73;;
65279;SDS011;51878;55.748;48.742;2024-03-06T23:54:41;1.20;;;1.10;;
65279;SDS011;51878;55.748;48.742;2024-03-06T23:59:43;3.15;;;1.20;;
